sensor_id;sensor_type;location;lat;lon;timestamp;temperature;humidity
23873;DHT22;42884;50.718;4.630;2023-07-08T00:00:25;18.20;99.90
23873;DHT22;42884;50.718;4.630;2023-07-08T00:02:52;18.20;99.90
23873;DHT22;42884;50.718;4.630;2023-07-08T00:05:18;18.10;99.90
23873;DHT22;42884;50.718;4.630;2023-07-08T00:07:45;18.10;99.90
23873;DHT22;42884;50.718;4.630;2023-07-08T00:10:15;18.00;99.90
23873;DHT22;42884;50.718;4.630;2023-07-08T00:12:41;18.00;99.90
23873;DHT22;42884;50.718;4.630;2023-07-08T00:15:07;18.00;99.90
23873;DHT22;42884;50.718;4.630;2023-07-08T00:17:33;18.00;99.90
23873;DHT22;42884;50.718;4.630;2023-07-08T00:19:58;18.00;99.90
23873;DHT22;42884;50.718;4.630;2023-07-08T00:22:24;17.90;99.90
23873;DHT22;42884;50.718;4.630;2023-07-08T00:24:50;17.90;99.90
23873;DHT22;42884;50.718;4.630;2023-07-08T00:27:16;17.80;99.90
23873;DHT22;42884;50.718;4.630;2023-07-08T00:29:41;17.80;99.90
23873;DHT22;42884;50.718;4.630;2023-07-08T00:32:09;17.90;99.90
23873;DHT22;42884;50.718;4.630;2023-07-08T00:34:35;17.80;99.90
23873;DHT22;42884;50.718;4.630;2023-07-08T00:37:00;17.80;99.90
23873;DHT22;42884;50.718;4.630;2023-07-08T00:39:28;17.80;99.90
23873;DHT22;42884;50.718;4.630;2023-07-08T00:41:54;17.80;99.90
23873;DHT22;42884;50.718;4.630;2023-07-08T00:44:20;17.80;99.90
23873;DHT22;42884;50.718;4.630;2023-07-08T00:51:43;17.70;99.90
23873;DHT22;42884;50.718;4.630;2023-07-08T00:56:40;17.70;99.90
23873;DHT22;42884;50.718;4.630;2023-07-08T00:59:08;17.70;99.90
23873;DHT22;42884;50.718;4.630;2023-07-08T01:01:35;17.70;99.90
23873;DHT22;42884;50.718;4.630;2023-07-08T01:04:23;17.60;99.90
23873;DHT22;42884;50.718;4.630;2023-07-08T01:06:49;17.60;99.90
23873;DHT22;42884;50.718;4.630;2023-07-08T01:09:22;17.60;99.90
23873;DHT22;42884;50.718;4.630;2023-07-08T01:11:49;17.60;99.90
23873;DHT22;42884;50.718;4.630;2023-07-08T01:14:15;17.70;99.90
23873;DHT22;42884;50.718;4.630;2023-07-08T01:16:43;17.60;99.90
23873;DHT22;42884;50.718;4.630;2023-07-08T01:19:12;17.50;99.90
23873;DHT22;42884;50.718;4.630;2023-07-08T01:21:48;17.60;99.90
23873;DHT22;42884;50.718;4.630;2023-07-08T01:24:26;17.60;99.90
23873;DHT22;42884;50.718;4.630;2023-07-08T01:26:52;17.50;99.90
23873;DHT22;42884;50.718;4.630;2023-07-08T01:29:19;17.50;99.90
23873;DHT22;42884;50.718;4.630;2023-07-08T01:31:44;17.60;99.90
23873;DHT22;42884;50.718;4.630;2023-07-08T01:34:17;17.50;99.90
23873;DHT22;42884;50.718;4.630;2023-07-08T01:36:49;17.50;99.90
23873;DHT22;42884;50.718;4.630;2023-07-08T01:39:16;17.40;99.90
23873;DHT22;42884;50.718;4.630;2023-07-08T01:41:43;17.40;99.90
23873;DHT22;42884;50.718;4.630;2023-07-08T01:44:22;17.40;99.90
23873;DHT22;42884;50.718;4.630;2023-07-08T01:46:47;17.40;99.90
23873;DHT22;42884;50.718;4.630;2023-07-08T01:49:13;17.40;99.90
23873;DHT22;42884;50.718;4.630;2023-07-08T01:51:39;17.30;99.90
23873;DHT22;42884;50.718;4.630;2023-07-08T01:54:04;17.30;99.90
23873;DHT22;42884;50.718;4.630;2023-07-08T01:56:30;17.20;99.90
23873;DHT22;42884;50.718;4.630;2023-07-08T01:58:55;17.20;99.90
23873;DHT22;42884;50.718;4.630;2023-07-08T02:01:21;17.20;99.90
23873;DHT22;42884;50.718;4.630;2023-07-08T02:03:47;17.10;99.90
23873;DHT22;42884;50.718;4.630;2023-07-08T02:06:12;17.10;99.90
23873;DHT22;42884;50.718;4.630;2023-07-08T02:08:38;17.10;99.90
23873;DHT22;42884;50.718;4.630;2023-07-08T02:11:03;17.10;99.90
23873;DHT22;42884;50.718;4.630;2023-07-08T02:13:29;17.10;99.90
23873;DHT22;42884;50.718;4.630;2023-07-08T02:15:54;17.10;99.90
23873;DHT22;42884;50.718;4.630;2023-07-08T02:18:20;17.10;99.90
23873;DHT22;42884;50.718;4.630;2023-07-08T02:20:46;17.00;99.90
23873;DHT22;42884;50.718;4.630;2023-07-08T02:23:11;17.00;99.90
23873;DHT22;42884;50.718;4.630;2023-07-08T02:25:37;16.90;99.90
23873;DHT22;42884;50.718;4.630;2023-07-08T02:28:03;16.90;99.90
23873;DHT22;42884;50.718;4.630;2023-07-08T02:30:28;16.90;99.90
23873;DHT22;42884;50.718;4.630;2023-07-08T02:32:54;16.90;99.90
23873;DHT22;42884;50.718;4.630;2023-07-08T02:35:27;16.90;99.90
23873;DHT22;42884;50.718;4.630;2023-07-08T02:37:54;16.90;99.90
23873;DHT22;42884;50.718;4.630;2023-07-08T02:40:20;16.90;99.90
23873;DHT22;42884;50.718;4.630;2023-07-08T02:42:46;16.90;99.90
23873;DHT22;42884;50.718;4.630;2023-07-08T02:45:12;16.90;99.90
23873;DHT22;42884;50.718;4.630;2023-07-08T02:47:37;16.90;99.90
23873;DHT22;42884;50.718;4.630;2023-07-08T02:50:03;16.90;99.90
23873;DHT22;42884;50.718;4.630;2023-07-08T02:52:30;16.90;99.90
23873;DHT22;42884;50.718;4.630;2023-07-08T02:54:55;16.90;99.90
23873;DHT22;42884;50.718;4.630;2023-07-08T02:57:21;16.90;99.90
23873;DHT22;42884;50.718;4.630;2023-07-08T02:59:46;16.90;99.90
23873;DHT22;42884;50.718;4.630;2023-07-08T03:02:12;16.90;99.90
23873;DHT22;42884;50.718;4.630;2023-07-08T03:04:37;17.00;99.90
23873;DHT22;42884;50.718;4.630;2023-07-08T03:07:05;17.00;99.90
23873;DHT22;42884;50.718;4.630;2023-07-08T03:09:31;17.00;99.90
23873;DHT22;42884;50.718;4.630;2023-07-08T03:11:58;17.00;99.90
23873;DHT22;42884;50.718;4.630;2023-07-08T03:14:23;16.90;99.90
23873;DHT22;42884;50.718;4.630;2023-07-08T03:16:49;16.90;99.90
23873;DHT22;42884;50.718;4.630;2023-07-08T03:19:14;17.00;99.90
23873;DHT22;42884;50.718;4.630;2023-07-08T03:21:40;17.00;99.90
23873;DHT22;42884;50.718;4.630;2023-07-08T03:24:08;17.00;99.90
23873;DHT22;42884;50.718;4.630;2023-07-08T03:26:36;17.00;99.90
23873;DHT22;42884;50.718;4.630;2023-07-08T03:29:02;17.00;99.90
23873;DHT22;42884;50.718;4.630;2023-07-08T03:31:28;17.00;99.90
23873;DHT22;42884;50.718;4.630;2023-07-08T03:33:53;17.00;99.90
23873;DHT22;42884;50.718;4.630;2023-07-08T03:36:19;17.00;99.90
23873;DHT22;42884;50.718;4.630;2023-07-08T03:38:51;17.00;99.90
23873;DHT22;42884;50.718;4.630;2023-07-08T03:41:17;17.00;99.90
23873;DHT22;42884;50.718;4.630;2023-07-08T03:43:43;17.00;99.90
23873;DHT22;42884;50.718;4.630;2023-07-08T03:46:10;17.00;99.90
23873;DHT22;42884;50.718;4.630;2023-07-08T03:48:35;17.00;99.90
23873;DHT22;42884;50.718;4.630;2023-07-08T03:51:01;17.00;99.90
23873;DHT22;42884;50.718;4.630;2023-07-08T03:53:27;17.00;99.90
23873;DHT22;42884;50.718;4.630;2023-07-08T03:55:52;16.90;99.90
23873;DHT22;42884;50.718;4.630;2023-07-08T03:58:18;16.90;99.90
23873;DHT22;42884;50.718;4.630;2023-07-08T04:00:43;16.90;99.90
23873;DHT22;42884;50.718;4.630;2023-07-08T04:03:10;16.90;99.90
23873;DHT22;42884;50.718;4.630;2023-07-08T04:05:36;16.90;99.90
23873;DHT22;42884;50.718;4.630;2023-07-08T04:08:02;16.90;99.90
23873;DHT22;42884;50.718;4.630;2023-07-08T04:10:28;16.90;99.90
23873;DHT22;42884;50.718;4.630;2023-07-08T04:12:53;16.90;99.90
23873;DHT22;42884;50.718;4.630;2023-07-08T04:15:19;16.90;99.90
23873;DHT22;42884;50.718;4.630;2023-07-08T04:17:45;16.90;99.90
23873;DHT22;42884;50.718;4.630;2023-07-08T04:20:15;16.80;99.90
23873;DHT22;42884;50.718;4.630;2023-07-08T04:22:41;16.90;99.90
23873;DHT22;42884;50.718;4.630;2023-07-08T04:25:07;16.80;99.90
23873;DHT22;42884;50.718;4.630;2023-07-08T04:27:33;16.80;99.90
23873;DHT22;42884;50.718;4.630;2023-07-08T04:29:58;16.90;99.90
23873;DHT22;42884;50.718;4.630;2023-07-08T04:32:24;16.90;99.90
23873;DHT22;42884;50.718;4.630;2023-07-08T04:34:52;16.90;99.90
23873;DHT22;42884;50.718;4.630;2023-07-08T04:37:18;16.90;99.90
23873;DHT22;42884;50.718;4.630;2023-07-08T04:39:44;16.90;99.90
23873;DHT22;42884;50.718;4.630;2023-07-08T04:42:10;16.90;99.90
23873;DHT22;42884;50.718;4.630;2023-07-08T04:44:38;16.90;99.90
23873;DHT22;42884;50.718;4.630;2023-07-08T04:47:03;16.90;99.90
23873;DHT22;42884;50.718;4.630;2023-07-08T04:49:29;16.90;99.90
23873;DHT22;42884;50.718;4.630;2023-07-08T04:51:59;16.90;99.90
23873;DHT22;42884;50.718;4.630;2023-07-08T04:54:24;17.00;99.90
23873;DHT22;42884;50.718;4.630;2023-07-08T04:56:50;17.10;99.90
23873;DHT22;42884;50.718;4.630;2023-07-08T04:59:18;17.10;99.90
23873;DHT22;42884;50.718;4.630;2023-07-08T05:01:44;17.10;99.90
23873;DHT22;42884;50.718;4.630;2023-07-08T05:04:14;17.20;99.90
23873;DHT22;42884;50.718;4.630;2023-07-08T05:06:40;17.30;99.90
23873;DHT22;42884;50.718;4.630;2023-07-08T05:09:05;17.40;99.90
23873;DHT22;42884;50.718;4.630;2023-07-08T05:11:31;17.40;99.90
23873;DHT22;42884;50.718;4.630;2023-07-08T05:13:57;17.60;99.90
23873;DHT22;42884;50.718;4.630;2023-07-08T05:16:23;17.60;99.90
23873;DHT22;42884;50.718;4.630;2023-07-08T05:18:49;17.70;99.90
23873;DHT22;42884;50.718;4.630;2023-07-08T05:21:14;17.80;99.90
23873;DHT22;42884;50.718;4.630;2023-07-08T05:23:40;17.90;99.90
23873;DHT22;42884;50.718;4.630;2023-07-08T05:26:06;17.90;99.90
23873;DHT22;42884;50.718;4.630;2023-07-08T05:28:32;18.10;99.90
23873;DHT22;42884;50.718;4.630;2023-07-08T05:30:58;18.10;99.90
23873;DHT22;42884;50.718;4.630;2023-07-08T05:33:25;18.20;99.90
23873;DHT22;42884;50.718;4.630;2023-07-08T05:35:51;18.30;99.90
23873;DHT22;42884;50.718;4.630;2023-07-08T05:38:16;18.40;99.90
23873;DHT22;42884;50.718;4.630;2023-07-08T05:40:42;18.50;99.90
23873;DHT22;42884;50.718;4.630;2023-07-08T05:43:08;18.50;99.90
23873;DHT22;42884;50.718;4.630;2023-07-08T05:45:33;18.60;99.90
23873;DHT22;42884;50.718;4.630;2023-07-08T05:48:01;18.70;99.90
23873;DHT22;42884;50.718;4.630;2023-07-08T05:50:26;18.80;99.90
23873;DHT22;42884;50.718;4.630;2023-07-08T05:52:52;18.90;99.90
23873;DHT22;42884;50.718;4.630;2023-07-08T05:55:17;19.00;99.90
23873;DHT22;42884;50.718;4.630;2023-07-08T05:57:43;19.10;99.90
23873;DHT22;42884;50.718;4.630;2023-07-08T06:00:09;19.20;99.90
23873;DHT22;42884;50.718;4.630;2023-07-08T06:02:36;19.30;99.90
23873;DHT22;42884;50.718;4.630;2023-07-08T06:05:01;19.40;99.90
23873;DHT22;42884;50.718;4.630;2023-07-08T06:07:27;19.50;99.90
23873;DHT22;42884;50.718;4.630;2023-07-08T06:09:53;19.70;99.90
23873;DHT22;42884;50.718;4.630;2023-07-08T06:12:21;19.80;99.90
23873;DHT22;42884;50.718;4.630;2023-07-08T06:14:46;19.90;99.90
23873;DHT22;42884;50.718;4.630;2023-07-08T06:17:12;20.00;99.90
23873;DHT22;42884;50.718;4.630;2023-07-08T06:19:38;20.10;99.90
23873;DHT22;42884;50.718;4.630;2023-07-08T06:22:03;20.10;99.90
23873;DHT22;42884;50.718;4.630;2023-07-08T06:24:29;20.30;99.90
23873;DHT22;42884;50.718;4.630;2023-07-08T06:26:54;20.40;99.90
23873;DHT22;42884;50.718;4.630;2023-07-08T06:29:20;20.50;99.90
23873;DHT22;42884;50.718;4.630;2023-07-08T06:31:45;20.60;99.90
23873;DHT22;42884;50.718;4.630;2023-07-08T06:34:11;20.70;99.90
23873;DHT22;42884;50.718;4.630;2023-07-08T06:36:37;20.90;99.90
23873;DHT22;42884;50.718;4.630;2023-07-08T06:39:02;20.90;99.90
23873;DHT22;42884;50.718;4.630;2023-07-08T06:41:28;21.10;99.90
23873;DHT22;42884;50.718;4.630;2023-07-08T06:43:54;21.20;99.90
23873;DHT22;42884;50.718;4.630;2023-07-08T06:46:19;21.30;99.90
23873;DHT22;42884;50.718;4.630;2023-07-08T06:48:45;21.50;99.90
23873;DHT22;42884;50.718;4.630;2023-07-08T06:51:11;21.60;99.90
23873;DHT22;42884;50.718;4.630;2023-07-08T06:53:36;21.80;99.90
23873;DHT22;42884;50.718;4.630;2023-07-08T06:56:02;21.90;99.90
23873;DHT22;42884;50.718;4.630;2023-07-08T06:58:28;22.00;99.90
23873;DHT22;42884;50.718;4.630;2023-07-08T07:00:53;22.10;99.90
23873;DHT22;42884;50.718;4.630;2023-07-08T07:03:19;22.30;99.90
23873;DHT22;42884;50.718;4.630;2023-07-08T07:05:44;22.40;99.90
23873;DHT22;42884;50.718;4.630;2023-07-08T07:08:10;22.60;99.90
23873;DHT22;42884;50.718;4.630;2023-07-08T07:10:36;22.70;99.90
23873;DHT22;42884;50.718;4.630;2023-07-08T07:13:01;22.90;99.90
23873;DHT22;42884;50.718;4.630;2023-07-08T07:15:27;23.00;99.90
23873;DHT22;42884;50.718;4.630;2023-07-08T07:17:55;23.20;99.90
23873;DHT22;42884;50.718;4.630;2023-07-08T07:20:21;23.30;99.90
23873;DHT22;42884;50.718;4.630;2023-07-08T07:22:46;23.40;99.90
23873;DHT22;42884;50.718;4.630;2023-07-08T07:25:12;23.60;99.90
23873;DHT22;42884;50.718;4.630;2023-07-08T07:27:37;23.80;99.90
23873;DHT22;42884;50.718;4.630;2023-07-08T07:30:03;23.90;99.90
23873;DHT22;42884;50.718;4.630;2023-07-08T07:32:29;24.10;99.90
23873;DHT22;42884;50.718;4.630;2023-07-08T07:34:57;24.30;99.90
23873;DHT22;42884;50.718;4.630;2023-07-08T07:37:24;24.50;99.90
23873;DHT22;42884;50.718;4.630;2023-07-08T07:39:50;24.70;99.90
23873;DHT22;42884;50.718;4.630;2023-07-08T07:42:16;24.90;99.90
23873;DHT22;42884;50.718;4.630;2023-07-08T07:44:42;25.00;99.90
23873;DHT22;42884;50.718;4.630;2023-07-08T07:47:08;25.20;99.90
23873;DHT22;42884;50.718;4.630;2023-07-08T07:49:34;25.50;99.90
23873;DHT22;42884;50.718;4.630;2023-07-08T07:52:00;25.70;99.90
23873;DHT22;42884;50.718;4.630;2023-07-08T07:54:25;25.80;99.90
23873;DHT22;42884;50.718;4.630;2023-07-08T07:56:51;26.00;99.90
23873;DHT22;42884;50.718;4.630;2023-07-08T07:59:17;26.10;99.90
23873;DHT22;42884;50.718;4.630;2023-07-08T08:01:42;26.30;99.90
23873;DHT22;42884;50.718;4.630;2023-07-08T08:04:09;26.50;99.90
23873;DHT22;42884;50.718;4.630;2023-07-08T08:06:35;26.70;99.90
23873;DHT22;42884;50.718;4.630;2023-07-08T08:09:00;26.90;99.90
23873;DHT22;42884;50.718;4.630;2023-07-08T08:11:26;27.10;99.90
23873;DHT22;42884;50.718;4.630;2023-07-08T08:13:53;27.20;99.90
23873;DHT22;42884;50.718;4.630;2023-07-08T08:16:19;27.40;99.90
23873;DHT22;42884;50.718;4.630;2023-07-08T08:18:44;27.60;99.90
23873;DHT22;42884;50.718;4.630;2023-07-08T08:21:10;27.80;99.90
23873;DHT22;42884;50.718;4.630;2023-07-08T08:23:36;27.90;99.90
23873;DHT22;42884;50.718;4.630;2023-07-08T08:26:02;28.10;99.90
23873;DHT22;42884;50.718;4.630;2023-07-08T08:28:27;28.30;99.90
23873;DHT22;42884;50.718;4.630;2023-07-08T08:30:53;28.50;99.90
23873;DHT22;42884;50.718;4.630;2023-07-08T08:33:18;28.80;99.90
23873;DHT22;42884;50.718;4.630;2023-07-08T08:35:44;28.90;99.90
23873;DHT22;42884;50.718;4.630;2023-07-08T08:38:10;29.10;99.90
23873;DHT22;42884;50.718;4.630;2023-07-08T08:40:36;29.20;99.40
23873;DHT22;42884;50.718;4.630;2023-07-08T08:43:03;29.50;99.50
23873;DHT22;42884;50.718;4.630;2023-07-08T08:45:31;29.70;99.90
23873;DHT22;42884;50.718;4.630;2023-07-08T08:48:03;30.00;98.70
23873;DHT22;42884;50.718;4.630;2023-07-08T08:50:35;30.50;98.90
23873;DHT22;42884;50.718;4.630;2023-07-08T08:53:05;30.60;98.20
23873;DHT22;42884;50.718;4.630;2023-07-08T08:55:33;30.50;97.80
23873;DHT22;42884;50.718;4.630;2023-07-08T09:00:48;31.50;99.50
23873;DHT22;42884;50.718;4.630;2023-07-08T09:03:12;31.70;97.00
23873;DHT22;42884;50.718;4.630;2023-07-08T09:05:40;31.90;97.50
23873;DHT22;42884;50.718;4.630;2023-07-08T09:10:56;32.40;95.30
23873;DHT22;42884;50.718;4.630;2023-07-08T09:13:32;33.00;96.50
23873;DHT22;42884;50.718;4.630;2023-07-08T09:16:01;33.50;96.90
23873;DHT22;42884;50.718;4.630;2023-07-08T09:18:28;33.80;97.10
23873;DHT22;42884;50.718;4.630;2023-07-08T09:20:56;34.10;96.40
23873;DHT22;42884;50.718;4.630;2023-07-08T09:23:24;34.40;95.60
23873;DHT22;42884;50.718;4.630;2023-07-08T09:25:58;34.30;92.40
23873;DHT22;42884;50.718;4.630;2023-07-08T09:28:41;34.70;93.30
23873;DHT22;42884;50.718;4.630;2023-07-08T09:31:07;35.10;94.20
23873;DHT22;42884;50.718;4.630;2023-07-08T09:33:33;35.30;94.20
23873;DHT22;42884;50.718;4.630;2023-07-08T09:35:59;35.50;93.80
23873;DHT22;42884;50.718;4.630;2023-07-08T09:38:29;35.30;90.00
23873;DHT22;42884;50.718;4.630;2023-07-08T09:40:58;35.60;92.40
23873;DHT22;42884;50.718;4.630;2023-07-08T09:43:25;35.90;92.10
23873;DHT22;42884;50.718;4.630;2023-07-08T09:45:51;36.10;92.60
23873;DHT22;42884;50.718;4.630;2023-07-08T09:50:43;36.30;90.40
23873;DHT22;42884;50.718;4.630;2023-07-08T09:53:12;36.40;90.90
23873;DHT22;42884;50.718;4.630;2023-07-08T09:55:38;36.60;91.40
23873;DHT22;42884;50.718;4.630;2023-07-08T09:58:04;36.50;89.40
23873;DHT22;42884;50.718;4.630;2023-07-08T10:00:34;36.80;91.40
23873;DHT22;42884;50.718;4.630;2023-07-08T10:03:05;36.60;89.10
23873;DHT22;42884;50.718;4.630;2023-07-08T10:05:41;36.70;89.70
23873;DHT22;42884;50.718;4.630;2023-07-08T10:08:14;36.60;85.40
23873;DHT22;42884;50.718;4.630;2023-07-08T10:10:41;36.70;91.20
23873;DHT22;42884;50.718;4.630;2023-07-08T10:13:21;37.10;87.20
23873;DHT22;42884;50.718;4.630;2023-07-08T10:15:52;37.30;87.70
23873;DHT22;42884;50.718;4.630;2023-07-08T10:18:21;37.80;88.70
23873;DHT22;42884;50.718;4.630;2023-07-08T10:31:49;38.80;84.60
23873;DHT22;42884;50.718;4.630;2023-07-08T10:34:18;38.50;81.20
23873;DHT22;42884;50.718;4.630;2023-07-08T10:44:19;39.10;80.40
23873;DHT22;42884;50.718;4.630;2023-07-08T10:46:56;38.60;77.60
23873;DHT22;42884;50.718;4.630;2023-07-08T10:55:18;38.90;76.70
23873;DHT22;42884;50.718;4.630;2023-07-08T10:57:20;38.90;77.50
23873;DHT22;42884;50.718;4.630;2023-07-08T11:00:11;39.10;80.50
23873;DHT22;42884;50.718;4.630;2023-07-08T11:07:56;39.70;80.60
23873;DHT22;42884;50.718;4.630;2023-07-08T11:10:28;39.80;78.70
23873;DHT22;42884;50.718;4.630;2023-07-08T11:15:26;39.30;75.80
23873;DHT22;42884;50.718;4.630;2023-07-08T11:17:59;39.50;79.90
23873;DHT22;42884;50.718;4.630;2023-07-08T11:23:27;39.90;76.80
23873;DHT22;42884;50.718;4.630;2023-07-08T11:25:50;40.10;78.20
23873;DHT22;42884;50.718;4.630;2023-07-08T11:28:19;40.30;82.80
23873;DHT22;42884;50.718;4.630;2023-07-08T11:30:47;40.10;75.60
23873;DHT22;42884;50.718;4.630;2023-07-08T11:33:15;39.90;76.60
23873;DHT22;42884;50.718;4.630;2023-07-08T11:35:46;40.20;75.50
23873;DHT22;42884;50.718;4.630;2023-07-08T11:38:14;39.90;72.40
23873;DHT22;42884;50.718;4.630;2023-07-08T11:43:15;40.00;79.80
23873;DHT22;42884;50.718;4.630;2023-07-08T11:45:41;40.30;78.60
23873;DHT22;42884;50.718;4.630;2023-07-08T11:48:12;40.50;78.30
23873;DHT22;42884;50.718;4.630;2023-07-08T11:50:40;40.70;76.00
23873;DHT22;42884;50.718;4.630;2023-07-08T11:53:07;40.50;72.90
23873;DHT22;42884;50.718;4.630;2023-07-08T11:55:37;40.70;74.10
23873;DHT22;42884;50.718;4.630;2023-07-08T11:58:20;40.60;72.90
23873;DHT22;42884;50.718;4.630;2023-07-08T12:00:51;40.40;73.20
23873;DHT22;42884;50.718;4.630;2023-07-08T12:03:19;40.10;75.00
23873;DHT22;42884;50.718;4.630;2023-07-08T12:05:50;40.40;75.80
23873;DHT22;42884;50.718;4.630;2023-07-08T12:08:17;40.30;76.10
23873;DHT22;42884;50.718;4.630;2023-07-08T12:10:48;39.80;74.40
23873;DHT22;42884;50.718;4.630;2023-07-08T12:13:16;39.40;74.10
23873;DHT22;42884;50.718;4.630;2023-07-08T12:15:42;39.00;76.60
23873;DHT22;42884;50.718;4.630;2023-07-08T12:20:34;38.50;76.70
23873;DHT22;42884;50.718;4.630;2023-07-08T12:23:01;37.80;77.70
23873;DHT22;42884;50.718;4.630;2023-07-08T12:25:29;37.40;79.30
23873;DHT22;42884;50.718;4.630;2023-07-08T12:27:56;36.30;80.50
23873;DHT22;42884;50.718;4.630;2023-07-08T12:30:22;35.20;83.90
23873;DHT22;42884;50.718;4.630;2023-07-08T12:32:48;34.00;86.60
23873;DHT22;42884;50.718;4.630;2023-07-08T12:35:19;33.00;92.00
23873;DHT22;42884;50.718;4.630;2023-07-08T12:37:46;30.90;98.80
23873;DHT22;42884;50.718;4.630;2023-07-08T12:40:11;29.30;98.50
23873;DHT22;42884;50.718;4.630;2023-07-08T12:42:37;27.50;99.90
23873;DHT22;42884;50.718;4.630;2023-07-08T12:45:09;26.50;99.90
23873;DHT22;42884;50.718;4.630;2023-07-08T12:47:38;26.00;99.90
23873;DHT22;42884;50.718;4.630;2023-07-08T12:50:03;25.90;99.90
23873;DHT22;42884;50.718;4.630;2023-07-08T12:52:29;25.80;99.90
23873;DHT22;42884;50.718;4.630;2023-07-08T12:54:59;25.70;99.90
23873;DHT22;42884;50.718;4.630;2023-07-08T12:57:24;25.60;99.90
23873;DHT22;42884;50.718;4.630;2023-07-08T12:59:51;25.40;99.90
23873;DHT22;42884;50.718;4.630;2023-07-08T13:02:17;24.80;99.90
23873;DHT22;42884;50.718;4.630;2023-07-08T13:04:44;24.60;99.90
23873;DHT22;42884;50.718;4.630;2023-07-08T13:10:06;25.10;99.90
23873;DHT22;42884;50.718;4.630;2023-07-08T13:12:32;25.50;99.90
23873;DHT22;42884;50.718;4.630;2023-07-08T13:15:01;25.90;99.90
23873;DHT22;42884;50.718;4.630;2023-07-08T13:17:27;26.40;99.90
23873;DHT22;42884;50.718;4.630;2023-07-08T13:19:53;26.80;99.90
23873;DHT22;42884;50.718;4.630;2023-07-08T13:22:22;27.30;99.90
23873;DHT22;42884;50.718;4.630;2023-07-08T13:24:48;27.70;99.90
23873;DHT22;42884;50.718;4.630;2023-07-08T13:27:24;28.10;99.90
23873;DHT22;42884;50.718;4.630;2023-07-08T13:29:56;28.50;99.90
23873;DHT22;42884;50.718;4.630;2023-07-08T13:32:31;28.80;99.90
23873;DHT22;42884;50.718;4.630;2023-07-08T13:34:57;29.20;99.90
23873;DHT22;42884;50.718;4.630;2023-07-08T13:37:22;29.50;99.90
23873;DHT22;42884;50.718;4.630;2023-07-08T13:39:51;29.80;99.90
23873;DHT22;42884;50.718;4.630;2023-07-08T13:42:17;30.10;99.90
23873;DHT22;42884;50.718;4.630;2023-07-08T13:44:44;30.20;99.90
23873;DHT22;42884;50.718;4.630;2023-07-08T13:47:23;30.40;99.90
23873;DHT22;42884;50.718;4.630;2023-07-08T13:49:58;30.70;99.90
23873;DHT22;42884;50.718;4.630;2023-07-08T13:52:25;30.90;99.90
23873;DHT22;42884;50.718;4.630;2023-07-08T13:54:53;30.90;99.90
23873;DHT22;42884;50.718;4.630;2023-07-08T13:57:19;31.00;99.90
23873;DHT22;42884;50.718;4.630;2023-07-08T13:59:45;31.10;99.90
23873;DHT22;42884;50.718;4.630;2023-07-08T14:04:40;31.20;99.90
23873;DHT22;42884;50.718;4.630;2023-07-08T14:07:10;31.20;99.90
23873;DHT22;42884;50.718;4.630;2023-07-08T14:09:38;31.10;99.90
23873;DHT22;42884;50.718;4.630;2023-07-08T14:12:03;31.20;99.90
23873;DHT22;42884;50.718;4.630;2023-07-08T14:14:29;31.30;99.90
23873;DHT22;42884;50.718;4.630;2023-07-08T14:16:59;31.50;99.90
23873;DHT22;42884;50.718;4.630;2023-07-08T14:19:25;31.90;99.90
23873;DHT22;42884;50.718;4.630;2023-07-08T14:21:53;32.20;99.90
23873;DHT22;42884;50.718;4.630;2023-07-08T14:24:19;32.50;99.90
23873;DHT22;42884;50.718;4.630;2023-07-08T14:26:47;32.90;99.90
23873;DHT22;42884;50.718;4.630;2023-07-08T14:29:12;33.10;99.90
23873;DHT22;42884;50.718;4.630;2023-07-08T14:31:38;33.40;99.90
23873;DHT22;42884;50.718;4.630;2023-07-08T14:34:05;33.70;99.90
23873;DHT22;42884;50.718;4.630;2023-07-08T14:36:31;33.90;99.90
23873;DHT22;42884;50.718;4.630;2023-07-08T14:38:57;34.20;99.90
23873;DHT22;42884;50.718;4.630;2023-07-08T14:41:23;34.30;99.90
23873;DHT22;42884;50.718;4.630;2023-07-08T14:43:48;34.50;99.90
23873;DHT22;42884;50.718;4.630;2023-07-08T14:46:14;34.80;99.90
23873;DHT22;42884;50.718;4.630;2023-07-08T14:48:41;34.90;99.90
23873;DHT22;42884;50.718;4.630;2023-07-08T14:51:07;35.00;99.90
23873;DHT22;42884;50.718;4.630;2023-07-08T14:53:33;35.30;99.90
23873;DHT22;42884;50.718;4.630;2023-07-08T14:56:00;35.50;99.90
23873;DHT22;42884;50.718;4.630;2023-07-08T14:58:29;35.50;99.90
23873;DHT22;42884;50.718;4.630;2023-07-08T15:00:56;35.60;99.90
23873;DHT22;42884;50.718;4.630;2023-07-08T15:03:25;35.70;99.90
23873;DHT22;42884;50.718;4.630;2023-07-08T15:05:51;35.80;99.90
23873;DHT22;42884;50.718;4.630;2023-07-08T15:08:16;36.00;99.90
23873;DHT22;42884;50.718;4.630;2023-07-08T15:10:47;36.10;99.90
23873;DHT22;42884;50.718;4.630;2023-07-08T15:13:13;36.00;99.90
23873;DHT22;42884;50.718;4.630;2023-07-08T15:15:39;36.00;99.90
23873;DHT22;42884;50.718;4.630;2023-07-08T15:18:12;36.20;99.90
23873;DHT22;42884;50.718;4.630;2023-07-08T15:20:38;36.40;99.90
23873;DHT22;42884;50.718;4.630;2023-07-08T15:23:04;36.50;99.90
23873;DHT22;42884;50.718;4.630;2023-07-08T15:25:29;36.60;99.90
23873;DHT22;42884;50.718;4.630;2023-07-08T15:27:55;36.50;99.90
23873;DHT22;42884;50.718;4.630;2023-07-08T15:30:23;36.60;99.90
23873;DHT22;42884;50.718;4.630;2023-07-08T15:32:49;36.30;99.90
23873;DHT22;42884;50.718;4.630;2023-07-08T15:35:16;36.00;99.90
23873;DHT22;42884;50.718;4.630;2023-07-08T15:37:42;36.20;99.90
23873;DHT22;42884;50.718;4.630;2023-07-08T15:40:08;36.00;99.90
23873;DHT22;42884;50.718;4.630;2023-07-08T15:42:37;36.00;99.90
23873;DHT22;42884;50.718;4.630;2023-07-08T15:45:20;36.00;99.90
23873;DHT22;42884;50.718;4.630;2023-07-08T15:47:47;36.20;99.90
23873;DHT22;42884;50.718;4.630;2023-07-08T15:50:14;36.20;99.90
23873;DHT22;42884;50.718;4.630;2023-07-08T15:52:40;36.10;99.90
23873;DHT22;42884;50.718;4.630;2023-07-08T15:55:06;36.00;99.90
23873;DHT22;42884;50.718;4.630;2023-07-08T15:57:33;35.80;99.90
23873;DHT22;42884;50.718;4.630;2023-07-08T15:59:58;35.30;99.90
23873;DHT22;42884;50.718;4.630;2023-07-08T16:02:28;35.50;99.90
23873;DHT22;42884;50.718;4.630;2023-07-08T16:04:54;35.70;99.90
23873;DHT22;42884;50.718;4.630;2023-07-08T16:07:20;35.60;99.90
23873;DHT22;42884;50.718;4.630;2023-07-08T16:09:45;35.70;99.90
23873;DHT22;42884;50.718;4.630;2023-07-08T16:12:12;35.80;99.90
23873;DHT22;42884;50.718;4.630;2023-07-08T16:14:40;35.80;99.90
23873;DHT22;42884;50.718;4.630;2023-07-08T16:17:10;35.80;99.90
23873;DHT22;42884;50.718;4.630;2023-07-08T16:19:36;35.80;99.90
23873;DHT22;42884;50.718;4.630;2023-07-08T16:22:02;35.70;99.90
23873;DHT22;42884;50.718;4.630;2023-07-08T16:24:27;35.60;99.90
23873;DHT22;42884;50.718;4.630;2023-07-08T16:26:53;35.50;99.90
23873;DHT22;42884;50.718;4.630;2023-07-08T16:29:19;35.40;99.90